Kinross, MI

6:33 AM EST on December 04, 2016 (GMT -0500)
Chippewa County International | | Change Station
Active Advisory: Special Statement

Elev 801 ft 46.25 °N, 84.48 °W | Updated 37 minutes ago

Overcast
Overcast
30 °F
Feels Like 21 °F
N
10
Wind Variable Wind from East

Today
High -- | Low -- °F
--% Chance of Precip.
Yesterday
High -- | Low -- °F
Precip. -- in
Pressure 30.28 in
Visibility 10.0 miles
Clouds Overcast 4500 ft
Windchill 21 °F
Dew Point 29 °F
Humidity 96%
Rainfall 0.00 in
Snow Depth Not available.
8:04 AM 4:52 PM
Waxing Crescent, 22% visible
METAR KCIU 041056Z AUTO 10009KT 10SM OVC045 M01/M02 A3019 RMK AO2 SLP252 T10111017 FZRANO
Pressure 30.28 in
Visibility 10.0 miles
Clouds Overcast 4500 ft
Windchill 21 °F
Dew Point 29 °F
Humidity 96%
Rainfall 0.00 in
Snow Depth Not available.
8:04 AM 4:52 PM
Waxing Crescent, 22% visible
METAR KCIU 041056Z AUTO 10009KT 10SM OVC045 M01/M02 A3019 RMK AO2 SLP252 T10111017 FZRANO

10-Day Weather Forecast

Almanac

Astronomy

Dec. 04, 2016 Rise Set
Actual Time
Civil Twilight
Nautical Twilight
Astronomical Twilight
Moon
Length of Visible Light
Length of Day
Tomorrow will be .
, % of the Moon is Illuminated

Today's Extremes

State Highs State Lows

Community

WunderPhotos

Upload Photos

1,955,593 photos uploaded!

WunderBlog® & News

Nearby

Air Quality

  Air Quality AQ Index Pollutant
Not available.

Snow Depth

Station Depth Elevation

Earthquake Activity

City Distance Mag. Time & Date
Minimum magnitude displayed is 2.5.

Coastal Water Temperatures

Place Temperature

Stations

Nearby Weather Stations

Station Location Temp. Windchill Dew Point Humidity Wind Precip. Elev Updated Type
                   

Watches & Warnings

Special Statement
Issued: 3:04 AM EST Dec. 4, 2016 – National Weather Service

... Accumulating snow expected this afternoon and tonight...

Widespread snow will develop this afternoon... with periods of snow
continuing through tonight. Total snow accumulation of one to four
inches is expected by Monday morning... with the highest amounts
along the St. Marys River.

Motorists are urged to use caution this afternoon and tonight as
slushy snow accumulations are expected... especially on secondary
and untreated Road surfaces.


Msb

304 am EST sun Dec 4 2016

... Accumulating snow expected this afternoon and tonight...

Widespread snow will develop this afternoon... with periods of snow
continuing through tonight. Total snow accumulation of one to four
inches is expected by Monday morning... with the highest amounts
along the St. Marys River.

Motorists are urged to use caution this afternoon and tonight as
slushy snow accumulations are expected... especially on secondary
and untreated Road surfaces.


Msb